createdAt,value
2022-11-17T00:00:43.541Z,68.68
2022-11-17T00:03:15.772Z,68.59
2022-11-17T00:05:44.220Z,68.54
2022-11-17T00:08:12.225Z,68.53
2022-11-17T00:10:39.885Z,68.52
2022-11-17T00:13:26.711Z,68.59
2022-11-17T00:15:54.309Z,68.64
2022-11-17T00:18:38.122Z,68.66
2022-11-17T00:21:21.965Z,68.66
2022-11-17T00:23:50.536Z,68.71
2022-11-17T00:26:30.926Z,68.60
2022-11-17T00:29:04.489Z,68.69
2022-11-17T00:31:50.474Z,68.71
2022-11-17T00:34:23.142Z,68.68
2022-11-17T00:36:52.860Z,68.71
2022-11-17T00:39:23.014Z,68.80
2022-11-17T00:41:50.766Z,68.77
2022-11-17T00:44:18.582Z,68.75
2022-11-17T00:46:46.215Z,68.89
2022-11-17T00:49:14.553Z,69.04
2022-11-17T00:51:42.368Z,68.88
2022-11-17T00:54:12.032Z,69.11
2022-11-17T00:56:39.793Z,69.00
2022-11-17T00:59:07.504Z,69.00
2022-11-17T01:01:35.664Z,69.05
2022-11-17T01:04:04.478Z,69.01
2022-11-17T01:06:40.473Z,69.04
2022-11-17T01:09:15.889Z,69.20
2022-11-17T01:11:44.486Z,69.08
2022-11-17T01:14:15.925Z,69.26
2022-11-17T01:16:44.350Z,69.25
2022-11-17T01:19:14.019Z,69.26
2022-11-17T01:21:41.751Z,69.22
2022-11-17T01:24:11.546Z,69.36
2022-11-17T01:26:40.308Z,69.21
2022-11-17T01:29:10.798Z,69.21
2022-11-17T01:31:41.364Z,69.22
2022-11-17T01:34:09.220Z,69.28
2022-11-17T01:36:54.480Z,69.25
2022-11-17T01:39:24.467Z,69.18
2022-11-17T01:41:53.381Z,69.44
2022-11-17T01:44:50.209Z,69.27
2022-11-17T01:47:24.022Z,69.31
2022-11-17T01:49:56.398Z,69.35
2022-11-17T01:52:25.384Z,69.35
2022-11-17T01:54:55.386Z,69.30
2022-11-17T01:57:34.939Z,69.46
2022-11-17T02:00:07.216Z,69.19
2022-11-17T02:02:37.038Z,69.25
2022-11-17T02:05:30.310Z,69.39
2022-11-17T02:08:01.826Z,69.39
2022-11-17T02:10:32.094Z,69.43
2022-11-17T02:13:01.537Z,69.40
2022-11-17T02:15:30.275Z,69.40
2022-11-17T02:17:59.535Z,69.53
2022-11-17T02:20:41.497Z,69.38
2022-11-17T02:23:41.098Z,69.33
2022-11-17T02:26:40.567Z,69.48
2022-11-17T02:29:25.666Z,69.60
2022-11-17T02:32:00.719Z,69.43
2022-11-17T02:34:34.749Z,69.62
2022-11-17T02:37:34.282Z,69.57
2022-11-17T02:40:20.707Z,69.51
2022-11-17T02:43:18.130Z,69.52
2022-11-17T02:45:56.531Z,69.56
2022-11-17T02:48:44.918Z,69.56
2022-11-17T02:51:20.053Z,69.57
2022-11-17T02:53:50.027Z,69.69
2022-11-17T02:56:17.638Z,69.77
2022-11-17T02:58:48.347Z,69.66
2022-11-17T03:01:22.071Z,69.73
2022-11-17T03:04:20.574Z,69.63
2022-11-17T03:07:11.820Z,69.57
2022-11-17T03:09:55.385Z,69.51
2022-11-17T03:12:38.887Z,69.62
2022-11-17T03:15:22.424Z,69.60
2022-11-17T03:18:21.938Z,69.71
2022-11-17T03:21:09.641Z,69.54
2022-11-17T03:24:00.307Z,69.66
2022-11-17T03:26:34.352Z,69.66
2022-11-17T03:29:05.300Z,69.70
2022-11-17T03:31:35.207Z,69.69
2022-11-17T03:34:07.180Z,69.75
2022-11-17T03:36:39.659Z,69.89
2022-11-17T03:39:14.585Z,69.85
2022-11-17T03:41:47.075Z,69.75
2022-11-17T03:44:18.298Z,69.64
2022-11-17T03:46:49.024Z,69.73
2022-11-17T03:49:35.282Z,69.63
2022-11-17T03:52:04.025Z,69.84
2022-11-17T03:54:32.495Z,69.80
2022-11-17T03:57:02.747Z,69.75
2022-11-17T03:59:43.067Z,69.77
2022-11-17T04:02:18.418Z,69.80
2022-11-17T04:05:02.453Z,69.83
2022-11-17T04:07:30.145Z,69.73
2022-11-17T04:09:57.811Z,69.70
2022-11-17T04:12:41.412Z,69.73
2022-11-17T04:15:26.572Z,69.71
2022-11-17T04:17:55.195Z,69.71
2022-11-17T04:20:23.337Z,69.66
2022-11-17T04:23:07.084Z,69.92
2022-11-17T04:26:06.578Z,69.84
2022-11-17T04:28:39.583Z,69.86
2022-11-17T04:31:14.729Z,69.90
2022-11-17T04:33:45.259Z,69.94
2022-11-17T04:36:14.959Z,69.93
2022-11-17T04:38:50.544Z,69.86
2022-11-17T04:41:35.657Z,69.86
2022-11-17T04:44:04.867Z,69.77
2022-11-17T04:46:34.875Z,69.90
2022-11-17T04:49:04.425Z,69.80
2022-11-17T04:51:34.780Z,69.72
2022-11-17T04:54:05.047Z,69.78
2022-11-17T04:56:32.777Z,69.79
2022-11-17T04:59:00.430Z,69.80
2022-11-17T05:01:28.614Z,69.86
2022-11-17T05:04:01.803Z,69.65
2022-11-17T05:06:34.198Z,69.60
2022-11-17T05:09:07.677Z,69.73
2022-11-17T05:11:51.614Z,69.69
2022-11-17T05:14:21.995Z,69.66
2022-11-17T05:17:13.348Z,69.65
2022-11-17T05:19:46.575Z,69.73
2022-11-17T05:22:38.275Z,69.77
2022-11-17T05:25:06.944Z,69.68
2022-11-17T05:27:34.914Z,69.68
2022-11-17T05:30:05.388Z,69.76
2022-11-17T05:32:32.952Z,69.69
2022-11-17T05:35:00.549Z,69.76
2022-11-17T05:37:28.283Z,69.89
2022-11-17T05:39:55.875Z,69.72
2022-11-17T05:42:23.462Z,69.75
2022-11-17T05:44:51.097Z,69.71
2022-11-17T05:47:18.699Z,69.77
2022-11-17T05:49:46.284Z,69.80
2022-11-17T05:52:13.945Z,69.90
2022-11-17T05:54:41.532Z,69.68
2022-11-17T05:57:16.769Z,69.71
2022-11-17T05:59:50.468Z,69.84
2022-11-17T06:02:29.265Z,69.83
2022-11-17T06:04:56.876Z,69.84
2022-11-17T06:07:24.600Z,69.83
2022-11-17T06:09:53.211Z,69.79
2022-11-17T06:12:20.794Z,69.77
2022-11-17T06:14:48.381Z,69.90
2022-11-17T06:17:23.091Z,69.80
2022-11-17T06:20:02.895Z,69.79
2022-11-17T06:22:31.785Z,69.80
2022-11-17T06:25:00.820Z,69.73
2022-11-17T06:27:31.935Z,69.80
2022-11-17T06:30:03.560Z,69.84
2022-11-17T06:32:34.189Z,69.77
2022-11-17T06:35:04.519Z,69.79
2022-11-17T06:37:32.164Z,69.63
2022-11-17T06:40:02.752Z,69.72
2022-11-17T06:42:47.640Z,69.61
2022-11-17T06:45:18.575Z,69.49
2022-11-17T06:47:46.156Z,69.53
2022-11-17T06:50:14.857Z,69.52
2022-11-17T06:52:42.478Z,69.31
2022-11-17T06:55:10.062Z,69.23
2022-11-17T06:57:37.703Z,69.34
2022-11-17T07:00:06.280Z,69.15
2022-11-17T07:02:33.992Z,69.33
2022-11-17T07:05:04.947Z,69.21
2022-11-17T07:07:32.696Z,69.28
2022-11-17T07:10:00.514Z,69.29
2022-11-17T07:12:28.124Z,69.13
2022-11-17T07:14:55.681Z,69.21
2022-11-17T07:17:23.241Z,69.13
2022-11-17T07:19:50.793Z,69.02
2022-11-17T07:22:18.547Z,68.93
2022-11-17T07:24:46.119Z,69.09
2022-11-17T07:27:13.740Z,69.21
2022-11-17T07:29:41.450Z,69.01
2022-11-17T07:32:11.656Z,69.04
2022-11-17T07:34:40.171Z,68.84
2022-11-17T07:37:07.752Z,68.96
2022-11-17T07:39:35.350Z,69.01
2022-11-17T07:42:02.929Z,68.88
2022-11-17T07:44:31.190Z,69.04
2022-11-17T07:46:58.861Z,69.00
2022-11-17T07:49:27.836Z,69.03
2022-11-17T07:51:55.546Z,69.04
2022-11-17T07:54:23.178Z,68.92
2022-11-17T07:56:50.842Z,69.00
2022-11-17T07:59:21.480Z,68.97
2022-11-17T08:01:49.336Z,68.90
2022-11-17T08:04:22.423Z,68.86
2022-11-17T08:06:50.206Z,68.80
2022-11-17T08:09:17.814Z,68.87
2022-11-17T08:11:45.364Z,68.89
2022-11-17T08:14:14.302Z,68.67
2022-11-17T08:16:42.136Z,68.71
2022-11-17T08:19:17.018Z,68.79
2022-11-17T08:21:47.761Z,68.85
2022-11-17T08:24:16.301Z,68.85
2022-11-17T08:26:43.906Z,68.88
2022-11-17T08:29:11.477Z,68.82
2022-11-17T08:31:41.243Z,68.76
2022-11-17T08:34:08.853Z,68.80
2022-11-17T08:36:39.807Z,68.71
2022-11-17T08:39:07.504Z,68.65
2022-11-17T08:41:35.155Z,68.56
2022-11-17T08:44:04.956Z,68.56
2022-11-17T08:46:32.586Z,68.50
2022-11-17T08:49:01.108Z,68.69
2022-11-17T08:51:29.317Z,69.17
2022-11-17T08:53:59.519Z,69.03
2022-11-17T08:56:27.410Z,68.88
2022-11-17T08:58:55.358Z,68.87
2022-11-17T09:01:24.977Z,70.32
2022-11-17T09:03:52.519Z,69.33
2022-11-17T09:06:20.244Z,68.60
2022-11-17T09:08:48.755Z,68.56
2022-11-17T09:11:16.977Z,68.42
2022-11-17T09:13:46.668Z,68.48
2022-11-17T09:16:15.838Z,68.29
2022-11-17T09:18:44.319Z,68.16
2022-11-17T09:21:15.985Z,68.15
2022-11-17T09:23:43.714Z,68.09
2022-11-17T09:26:13.732Z,68.20
2022-11-17T09:28:42.566Z,68.24
2022-11-17T09:31:13.149Z,68.11
2022-11-17T09:33:41.154Z,68.05
2022-11-17T09:36:09.542Z,68.14
2022-11-17T09:38:38.435Z,68.13
2022-11-17T09:41:27.373Z,68.07
2022-11-17T09:44:25.758Z,68.08
2022-11-17T09:47:25.833Z,68.25
2022-11-17T09:49:58.754Z,68.12
2022-11-17T09:52:37.917Z,68.17
2022-11-17T09:55:08.581Z,68.05
2022-11-17T09:57:50.958Z,68.05
2022-11-17T10:00:22.851Z,67.91
2022-11-17T10:02:51.689Z,67.82
2022-11-17T10:05:35.465Z,67.87
2022-11-17T10:08:11.842Z,67.80
2022-11-17T10:10:45.926Z,67.93
2022-11-17T10:13:19.828Z,67.91
2022-11-17T10:15:50.872Z,67.92
2022-11-17T10:18:18.555Z,67.69
2022-11-17T10:20:46.326Z,67.49
2022-11-17T10:23:18.434Z,67.59
2022-11-17T10:25:49.392Z,67.70
2022-11-17T10:28:30.180Z,67.63
2022-11-17T10:31:10.498Z,67.50
2022-11-17T10:33:47.690Z,67.36
2022-11-17T10:36:19.963Z,67.32
2022-11-17T10:38:58.938Z,67.28
2022-11-17T10:41:39.039Z,67.41
2022-11-17T10:44:20.908Z,67.46
2022-11-17T10:47:01.985Z,67.22
2022-11-17T10:49:36.025Z,67.16
2022-11-17T10:52:16.599Z,67.05
2022-11-17T10:54:44.298Z,66.98
2022-11-17T10:57:20.137Z,66.88
2022-11-17T10:59:57.749Z,66.95
2022-11-17T11:02:36.080Z,66.72
2022-11-17T11:05:13.187Z,66.80
2022-11-17T11:07:41.680Z,66.94
2022-11-17T11:10:31.858Z,66.92
2022-11-17T11:13:45.768Z,66.95
2022-11-17T11:16:13.349Z,66.92
2022-11-17T11:18:40.978Z,66.76
2022-11-17T11:21:17.845Z,66.66
2022-11-17T11:23:48.332Z,66.50
2022-11-17T11:26:31.973Z,66.43
2022-11-17T11:29:17.944Z,66.35
2022-11-17T11:32:16.737Z,66.65
2022-11-17T11:35:17.029Z,66.52
2022-11-17T11:38:03.605Z,66.35
2022-11-17T11:40:49.697Z,66.54
2022-11-17T11:43:36.375Z,66.35
2022-11-17T11:46:19.849Z,66.17
2022-11-17T11:48:49.697Z,66.12
2022-11-17T11:51:33.309Z,66.05
2022-11-17T11:54:09.449Z,66.03
2022-11-17T11:56:46.040Z,66.29
2022-11-17T11:59:24.668Z,66.26
2022-11-17T12:01:59.644Z,66.34
2022-11-17T12:04:55.739Z,66.34
2022-11-17T12:07:42.305Z,66.05
2022-11-17T12:10:20.949Z,65.72
2022-11-17T12:12:49.574Z,65.63
2022-11-17T12:15:20.297Z,65.56
2022-11-17T12:18:12.628Z,65.13
2022-11-17T12:21:01.241Z,65.10
2022-11-17T12:23:47.659Z,65.19
2022-11-17T12:26:28.094Z,65.21
2022-11-17T12:29:28.691Z,64.99
2022-11-17T12:32:01.939Z,65.04
2022-11-17T12:34:36.758Z,64.90
2022-11-17T12:37:10.378Z,64.67
2022-11-17T12:39:58.584Z,64.91
2022-11-17T12:42:28.083Z,65.04
2022-11-17T12:44:56.587Z,65.00
2022-11-17T12:47:27.319Z,64.71
2022-11-17T12:50:37.458Z,64.60
2022-11-17T12:53:18.272Z,64.52
2022-11-17T12:56:07.712Z,64.64
2022-11-17T12:58:57.161Z,64.84
2022-11-17T13:01:55.601Z,64.85
2022-11-17T13:04:49.803Z,65.05
2022-11-17T13:07:25.783Z,65.22
2022-11-17T13:09:59.029Z,65.31
2022-11-17T13:12:29.077Z,65.43
2022-11-17T13:14:58.792Z,65.34
2022-11-17T13:17:32.659Z,65.16
2022-11-17T13:20:05.487Z,64.97
2022-11-17T13:22:36.482Z,64.23
2022-11-17T13:25:23.255Z,63.72
2022-11-17T13:27:57.207Z,63.90
2022-11-17T13:30:31.416Z,64.74
2022-11-17T13:33:03.864Z,65.36
2022-11-17T13:35:36.175Z,65.85
2022-11-17T13:38:26.631Z,66.43
2022-11-17T13:40:54.397Z,66.25
2022-11-17T13:43:24.384Z,65.82
2022-11-17T13:45:54.732Z,65.39
2022-11-17T13:48:39.944Z,64.62
2022-11-17T13:51:42.113Z,64.17
2022-11-17T13:54:13.167Z,63.54
2022-11-17T13:56:53.834Z,63.02
2022-11-17T13:59:24.071Z,62.73
2022-11-17T14:02:24.181Z,62.45
2022-11-17T14:05:10.731Z,62.06
2022-11-17T14:07:39.812Z,61.64
2022-11-17T14:10:31.724Z,61.25
2022-11-17T14:13:02.788Z,61.44
2022-11-17T14:15:34.508Z,61.61
2022-11-17T14:18:17.469Z,61.60
2022-11-17T14:20:45.105Z,61.65
2022-11-17T14:23:13.273Z,61.41
2022-11-17T14:25:43.510Z,61.04
2022-11-17T14:28:16.996Z,60.69
2022-11-17T14:30:49.548Z,60.24
2022-11-17T14:33:17.522Z,60.06
2022-11-17T14:35:48.150Z,60.12
2022-11-17T14:38:19.112Z,60.10
2022-11-17T14:40:49.253Z,60.31
2022-11-17T14:43:18.319Z,60.56
2022-11-17T14:45:46.182Z,60.70
2022-11-17T14:48:18.828Z,60.82
2022-11-17T14:50:48.164Z,60.93
2022-11-17T14:53:15.799Z,61.01
2022-11-17T14:55:43.334Z,61.04
2022-11-17T14:58:10.911Z,61.22
2022-11-17T15:00:38.451Z,61.14
2022-11-17T15:03:06.177Z,61.23
2022-11-17T15:05:33.908Z,61.35
2022-11-17T15:08:01.467Z,61.45
2022-11-17T15:10:29.013Z,61.61
2022-11-17T15:12:56.569Z,61.66
2022-11-17T15:15:24.187Z,61.68
2022-11-17T15:17:51.735Z,61.85
2022-11-17T15:20:19.431Z,62.10
2022-11-17T15:22:46.995Z,61.95
2022-11-17T15:25:14.539Z,62.11
2022-11-17T15:27:42.151Z,62.00
2022-11-17T15:30:11.091Z,62.01
2022-11-17T15:32:38.667Z,62.10
2022-11-17T15:35:06.730Z,62.20
2022-11-17T15:37:34.295Z,62.36
2022-11-17T15:40:02.102Z,62.44
2022-11-17T15:42:29.654Z,62.36
2022-11-17T15:44:57.225Z,62.47
2022-11-17T15:47:24.846Z,62.36
2022-11-17T15:49:58.381Z,62.52
2022-11-17T15:52:41.968Z,62.48
2022-11-17T15:55:14.252Z,62.57
2022-11-17T15:57:41.788Z,62.61
2022-11-17T16:00:10.317Z,62.74
2022-11-17T16:02:40.406Z,62.66
2022-11-17T16:05:08.205Z,62.70
2022-11-17T16:07:35.949Z,62.62
2022-11-17T16:10:03.833Z,62.75
2022-11-17T16:12:31.488Z,62.70
2022-11-17T16:14:59.051Z,62.78
2022-11-17T16:17:26.615Z,62.82
2022-11-17T16:19:54.287Z,62.85
2022-11-17T16:22:21.905Z,63.00
2022-11-17T16:24:49.482Z,63.06
2022-11-17T16:27:17.069Z,63.13
2022-11-17T16:29:44.621Z,63.24
2022-11-17T16:32:12.214Z,63.19
2022-11-17T16:34:41.444Z,63.26
2022-11-17T16:37:09.054Z,63.22
2022-11-17T16:39:36.674Z,63.42
2022-11-17T16:42:04.255Z,63.16
2022-11-17T16:44:31.906Z,63.34
2022-11-17T16:46:59.597Z,63.43
2022-11-17T16:49:27.187Z,63.32
2022-11-17T16:51:54.889Z,63.32
2022-11-17T16:54:22.553Z,63.29
2022-11-17T16:56:51.407Z,63.40
2022-11-17T16:59:19.713Z,63.47
2022-11-17T17:01:47.697Z,63.42
2022-11-17T17:04:15.699Z,63.42
2022-11-17T17:06:45.823Z,63.43
2022-11-17T17:09:15.372Z,63.41
2022-11-17T17:11:43.359Z,63.25
2022-11-17T17:14:14.241Z,63.37
2022-11-17T17:16:42.823Z,63.25
2022-11-17T17:19:12.450Z,63.49
2022-11-17T17:21:41.317Z,63.39
2022-11-17T17:24:09.858Z,63.36
2022-11-17T17:26:40.018Z,63.41
2022-11-17T17:29:08.161Z,63.55
2022-11-17T17:31:38.601Z,63.55
2022-11-17T17:34:08.315Z,63.59
2022-11-17T17:36:37.214Z,63.65
2022-11-17T17:39:05.389Z,63.68
2022-11-17T17:41:38.083Z,63.70
2022-11-17T17:44:07.974Z,63.66
2022-11-17T17:46:37.991Z,63.75
2022-11-17T17:49:06.707Z,63.77
2022-11-17T17:51:39.862Z,63.90
2022-11-17T17:54:10.102Z,63.78
2022-11-17T17:56:37.664Z,63.73
2022-11-17T17:59:05.226Z,63.83
2022-11-17T18:01:37.468Z,63.79
2022-11-17T18:04:05.382Z,63.82
2022-11-17T18:06:37.943Z,63.85
2022-11-17T18:09:07.761Z,63.82
2022-11-17T18:11:35.706Z,63.87
2022-11-17T18:14:04.235Z,63.92
2022-11-17T18:16:33.714Z,63.94
2022-11-17T18:19:04.217Z,64.06
2022-11-17T18:21:32.683Z,63.97
2022-11-17T18:24:01.975Z,64.05
2022-11-17T18:26:35.351Z,64.06
2022-11-17T18:29:09.192Z,64.07
2022-11-17T18:31:37.282Z,64.12
2022-11-17T18:34:15.318Z,64.16
2022-11-17T18:36:42.852Z,64.04
2022-11-17T18:39:10.750Z,64.24
2022-11-17T18:41:38.519Z,64.22
2022-11-17T18:44:06.055Z,64.29
2022-11-17T18:46:33.804Z,64.36
2022-11-17T18:49:01.488Z,64.41
2022-11-17T18:51:31.518Z,64.32
2022-11-17T18:54:01.066Z,64.37
2022-11-17T18:56:34.534Z,64.37
2022-11-17T18:59:03.014Z,64.37
2022-11-17T19:01:30.804Z,64.46
2022-11-17T19:04:01.028Z,64.49
2022-11-17T19:06:29.815Z,64.38
2022-11-17T19:08:59.612Z,64.49
2022-11-17T19:11:30.762Z,64.48
2022-11-17T19:14:02.252Z,64.41
2022-11-17T19:16:31.803Z,64.36
2022-11-17T19:18:59.604Z,64.41
2022-11-17T19:21:29.380Z,64.49
2022-11-17T19:23:58.958Z,64.50
2022-11-17T19:26:29.108Z,64.52
2022-11-17T19:29:15.527Z,64.51
2022-11-17T19:31:45.566Z,64.56
2022-11-17T19:34:14.479Z,64.73
2022-11-17T19:36:42.142Z,64.59
2022-11-17T19:39:12.084Z,64.47
2022-11-17T19:41:39.779Z,64.57
2022-11-17T19:44:08.899Z,64.66
2022-11-17T19:46:37.609Z,64.66
2022-11-17T19:49:07.650Z,64.65
2022-11-17T19:51:41.182Z,64.64
2022-11-17T19:54:11.097Z,64.67
2022-11-17T19:56:38.871Z,64.64
2022-11-17T19:59:08.666Z,64.71
2022-11-17T20:01:38.923Z,64.75
2022-11-17T20:04:07.413Z,64.82
2022-11-17T20:06:37.566Z,64.78
2022-11-17T20:09:11.205Z,64.78
2022-11-17T20:11:39.740Z,64.79
2022-11-17T20:14:07.429Z,64.79
2022-11-17T20:16:36.670Z,64.88
2022-11-17T20:19:04.359Z,64.90
2022-11-17T20:21:32.218Z,64.98
2022-11-17T20:24:01.104Z,65.11
2022-11-17T20:26:31.816Z,65.03
2022-11-17T20:29:00.518Z,65.03
2022-11-17T20:31:30.311Z,65.04
2022-11-17T20:34:00.580Z,64.95
2022-11-17T20:36:29.935Z,64.84
2022-11-17T20:39:00.493Z,65.03
2022-11-17T20:41:29.348Z,65.00
2022-11-17T20:43:58.650Z,65.06
2022-11-17T20:46:26.804Z,65.01
2022-11-17T20:48:54.870Z,64.97
2022-11-17T20:51:24.427Z,65.01
2022-11-17T20:53:52.381Z,64.98
2022-11-17T20:56:21.084Z,65.13
2022-11-17T20:58:48.774Z,65.07
2022-11-17T21:01:19.089Z,65.09
2022-11-17T21:03:47.414Z,65.09
2022-11-17T21:06:16.093Z,65.10
2022-11-17T21:08:44.995Z,65.06
2022-11-17T21:11:30.493Z,65.19
2022-11-17T21:13:58.478Z,65.29
2022-11-17T21:16:26.066Z,65.27
2022-11-17T21:18:54.349Z,65.34
2022-11-17T21:21:22.079Z,65.37
2022-11-17T21:23:53.931Z,65.38
2022-11-17T21:26:23.037Z,65.41
2022-11-17T21:28:51.448Z,65.38
2022-11-17T21:31:23.439Z,65.31
2022-11-17T21:33:59.626Z,65.36
2022-11-17T21:36:29.561Z,65.35
2022-11-17T21:38:57.992Z,65.36
2022-11-17T21:41:30.784Z,65.46
2022-11-17T21:44:00.380Z,65.42
2022-11-17T21:46:30.199Z,65.47
2022-11-17T21:48:59.980Z,65.54
2022-11-17T21:51:33.731Z,65.50
2022-11-17T21:54:04.391Z,65.57
2022-11-17T21:56:32.666Z,65.50
2022-11-17T21:59:05.836Z,65.52
2022-11-17T22:01:34.698Z,65.58
2022-11-17T22:04:02.715Z,65.76
2022-11-17T22:06:30.523Z,65.86
2022-11-17T22:08:59.609Z,65.89
2022-11-17T22:11:36.903Z,65.97
2022-11-17T22:14:16.279Z,65.96
2022-11-17T22:16:46.868Z,65.94
2022-11-17T22:19:16.209Z,65.94
2022-11-17T22:21:44.709Z,65.87
2022-11-17T22:24:13.007Z,65.97
2022-11-17T22:26:43.341Z,65.97
2022-11-17T22:29:14.498Z,65.91
2022-11-17T22:31:42.347Z,65.89
2022-11-17T22:34:11.032Z,65.72
2022-11-17T22:36:39.016Z,65.77
2022-11-17T22:39:06.881Z,65.76
2022-11-17T22:41:34.929Z,65.85
2022-11-17T22:44:02.784Z,65.97
2022-11-17T22:46:30.395Z,66.08
2022-11-17T22:48:58.849Z,66.21
2022-11-17T22:51:43.367Z,66.21
2022-11-17T22:54:11.306Z,66.18
2022-11-17T22:56:39.211Z,66.17
2022-11-17T22:59:07.003Z,66.11
2022-11-17T23:01:35.219Z,66.04
2022-11-17T23:04:03.236Z,66.10
2022-11-17T23:06:30.855Z,66.05
2022-11-17T23:08:58.868Z,66.08
2022-11-17T23:11:38.477Z,66.08
2022-11-17T23:14:09.446Z,66.08
2022-11-17T23:16:38.219Z,66.08
2022-11-17T23:19:06.812Z,65.97
2022-11-17T23:21:34.471Z,66.03
2022-11-17T23:24:02.217Z,66.10
2022-11-17T23:26:29.850Z,66.13
2022-11-17T23:28:58.161Z,66.14
2022-11-17T23:31:27.813Z,66.31
2022-11-17T23:33:56.175Z,66.23
2022-11-17T23:36:24.151Z,66.43
2022-11-17T23:38:52.486Z,66.40
2022-11-17T23:41:21.091Z,66.46
2022-11-17T23:43:53.947Z,66.46
2022-11-17T23:46:25.202Z,66.49
2022-11-17T23:48:54.141Z,66.52
2022-11-17T23:51:24.433Z,66.53
2022-11-17T23:53:52.534Z,66.64
2022-11-17T23:56:20.724Z,66.58
2022-11-17T23:58:49.260Z,66.64
